• Join FlightAware (Why Join?)
  • Login
  • US Flag 
06:08PM EDT


 

Airport Tracker/Info


-or-


 

Live Flight TrackerFlight Track Log ✈ CTL311 ✈ 02-Jul-2013 ✈ KOSU - KJXN

Flight Track Log - Related Links

Times and Time Zones

All times are in EDT time to prevent confusion due to time zone crossing. See the CTL311 flight status page for this flight to view local times or setup timezone preferences in your user account.

Time Position Orientation Groundspeed Altitude Reporting Facility
EDT Latitude Longitude Course Direction KTS MPH feet Rate Location/Type
03:11AM 40.1044 -83.0714 336° Northwest 128 147 1,900  Level Indianapolis Center
03:12AM 40.1442 -83.0942 336° Northwest 152 175 2,800 720 Climbing Indianapolis Center
03:13AM 40.1858 -83.1203 334° Northwest 155 178 3,500 600 Climbing Indianapolis Center
03:14AM 40.2233 -83.1456 333° Northwest 155 178 4,100 540 Climbing Indianapolis Center
03:15AM 40.2628 -83.1711 334° Northwest 160 184 4,600 540 Climbing Indianapolis Center
03:16AM 40.3000 -83.1992 330° Northwest 157 181 5,300 660 Climbing Indianapolis Center
03:17AM 40.3397 -83.2250 334° Northwest 152 175 6,000 240 Climbing Indianapolis Center
03:19AM 40.3892 -83.2578 333° Northwest 164 189 6,000  Level Indianapolis Center
03:20AM 40.4336 -83.2881 333° Northwest 176 203 6,000 -60 Level Indianapolis Center
03:21AM 40.4794 -83.3139 337° Northwest 179 206 5,900  Descending Indianapolis Center
03:22AM 40.5258 -83.3431 334° Northwest 182 209 6,000  Climbing Indianapolis Center
03:23AM 40.5719 -83.3711 335° Northwest 181 208 6,000  Level Indianapolis Center
03:24AM 40.6167 -83.4006 333° Northwest 179 206 6,000  Level Indianapolis Center
03:25AM 40.6619 -83.4247 338° Northwest 177 204 6,000 -60 Level Indianapolis Center
03:26AM 40.7022 -83.4625 325° Northwest 181 208 5,900 -60 Descending Indianapolis Center
03:27AM 40.7422 -83.5006 324° Northwest 178 205 5,900  Level Indianapolis Center
03:28AM 40.7867 -83.5311 333° Northwest 178 205 6,000 -60 Climbing Indianapolis Center
03:29AM 40.8317 -83.5589 335° Northwest 178 205 5,800 -60 Descending Indianapolis Center
03:30AM 40.8778 -83.5867 336° Northwest 179 206 5,900  Climbing Indianapolis Center
03:31AM 40.9219 -83.6153 334° Northwest 177 204 5,900  Level Indianapolis Center